sensor_id;sensor_type;location;lat;lon;timestamp;pressure;altitude;pressure_sealevel;temperature;humidity
62025;BME280;47978;49.118;12.146;2022-12-18T00:02:06;98773.16;;;-3.97;87.47
62025;BME280;47978;49.118;12.146;2022-12-18T00:06:09;98765.19;;;-4.13;88.91
62025;BME280;47978;49.118;12.146;2022-12-18T00:10:11;98759.78;;;-4.13;88.81
62025;BME280;47978;49.118;12.146;2022-12-18T00:14:15;98757.28;;;-4.15;89.30
62025;BME280;47978;49.118;12.146;2022-12-18T00:18:17;98758.13;;;-4.14;88.80
62025;BME280;47978;49.118;12.146;2022-12-18T00:22:22;98757.47;;;-3.78;87.48
62025;BME280;47978;49.118;12.146;2022-12-18T00:26:24;98761.47;;;-3.74;87.14
62025;BME280;47978;49.118;12.146;2022-12-18T00:30:26;98772.13;;;-3.73;86.67
62025;BME280;47978;49.118;12.146;2022-12-18T00:34:27;98778.22;;;-3.79;86.97
62025;BME280;47978;49.118;12.146;2022-12-18T00:38:30;98786.38;;;-4.02;88.05
62025;BME280;47978;49.118;12.146;2022-12-18T00:42:32;98793.31;;;-4.08;88.31
62025;BME280;47978;49.118;12.146;2022-12-18T00:46:33;98790.16;;;-4.11;88.17
62025;BME280;47978;49.118;12.146;2022-12-18T00:50:34;98798.19;;;-4.26;89.23
62025;BME280;47978;49.118;12.146;2022-12-18T00:54:37;98802.53;;;-4.17;89.68
62025;BME280;47978;49.118;12.146;2022-12-18T00:58:38;98800.50;;;-4.15;88.79
62025;BME280;47978;49.118;12.146;2022-12-18T01:02:40;98799.28;;;-4.12;88.49
62025;BME280;47978;49.118;12.146;2022-12-18T01:06:42;98803.81;;;-4.13;88.69
62025;BME280;47978;49.118;12.146;2022-12-18T01:10:44;98802.63;;;-4.10;88.41
62025;BME280;47978;49.118;12.146;2022-12-18T01:14:46;98801.84;;;-4.19;88.61
62025;BME280;47978;49.118;12.146;2022-12-18T01:18:49;98803.31;;;-4.08;88.25
62025;BME280;47978;49.118;12.146;2022-12-18T01:22:51;98806.00;;;-4.08;87.09
62025;BME280;47978;49.118;12.146;2022-12-18T01:26:54;98819.56;;;-4.16;87.58
62025;BME280;47978;49.118;12.146;2022-12-18T01:30:55;98815.97;;;-4.09;87.12
62025;BME280;47978;49.118;12.146;2022-12-18T01:34:57;98814.09;;;-4.08;86.71
62025;BME280;47978;49.118;12.146;2022-12-18T01:38:59;98811.50;;;-4.24;87.86
62025;BME280;47978;49.118;12.146;2022-12-18T01:43:02;98807.38;;;-4.35;88.44
62025;BME280;47978;49.118;12.146;2022-12-18T01:47:03;98817.25;;;-4.27;88.11
62025;BME280;47978;49.118;12.146;2022-12-18T01:51:05;98827.06;;;-4.26;87.71
62025;BME280;47978;49.118;12.146;2022-12-18T01:55:08;98820.22;;;-4.14;86.80
62025;BME280;47978;49.118;12.146;2022-12-18T01:59:11;98825.16;;;-4.18;86.84
62025;BME280;47978;49.118;12.146;2022-12-18T02:03:14;98834.22;;;-4.11;86.02
62025;BME280;47978;49.118;12.146;2022-12-18T02:07:17;98838.34;;;-4.23;86.45
62025;BME280;47978;49.118;12.146;2022-12-18T02:11:23;98829.22;;;-4.22;86.93
62025;BME280;47978;49.118;12.146;2022-12-18T02:15:31;98835.41;;;-4.13;86.53
62025;BME280;47978;49.118;12.146;2022-12-18T02:19:43;98850.69;;;-4.28;87.42
62025;BME280;47978;49.118;12.146;2022-12-18T02:23:49;98839.53;;;-4.25;87.19
62025;BME280;47978;49.118;12.146;2022-12-18T02:27:55;98836.03;;;-4.34;87.41
62025;BME280;47978;49.118;12.146;2022-12-18T02:31:57;98848.34;;;-4.32;87.70
62025;BME280;47978;49.118;12.146;2022-12-18T02:35:59;98845.28;;;-4.28;87.85
62025;BME280;47978;49.118;12.146;2022-12-18T02:40:02;98841.88;;;-4.22;86.45
62025;BME280;47978;49.118;12.146;2022-12-18T02:44:08;98835.41;;;-4.13;86.91
62025;BME280;47978;49.118;12.146;2022-12-18T02:48:10;98841.22;;;-4.24;87.19
62025;BME280;47978;49.118;12.146;2022-12-18T02:52:13;98833.34;;;-4.34;87.86
62025;BME280;47978;49.118;12.146;2022-12-18T02:56:19;98847.28;;;-4.22;88.04
62025;BME280;47978;49.118;12.146;2022-12-18T03:00:24;98844.31;;;-4.36;88.13
62025;BME280;47978;49.118;12.146;2022-12-18T03:04:28;98838.50;;;-4.24;87.56
62025;BME280;47978;49.118;12.146;2022-12-18T03:08:33;98839.38;;;-4.24;87.80
62025;BME280;47978;49.118;12.146;2022-12-18T03:12:37;98825.38;;;-4.27;87.59
62025;BME280;47978;49.118;12.146;2022-12-18T03:16:42;98814.47;;;-4.11;87.30
62025;BME280;47978;49.118;12.146;2022-12-18T03:20:44;98823.69;;;-3.82;85.69
62025;BME280;47978;49.118;12.146;2022-12-18T03:24:47;98833.78;;;-3.76;85.55
62025;BME280;47978;49.118;12.146;2022-12-18T03:28:50;98828.59;;;-4.01;86.70
62025;BME280;47978;49.118;12.146;2022-12-18T03:32:56;98833.47;;;-3.81;85.32
62025;BME280;47978;49.118;12.146;2022-12-18T03:37:00;98842.72;;;-3.76;85.86
62025;BME280;47978;49.118;12.146;2022-12-18T03:41:03;98836.38;;;-4.06;86.98
62025;BME280;47978;49.118;12.146;2022-12-18T03:45:09;98821.53;;;-4.10;87.57
62025;BME280;47978;49.118;12.146;2022-12-18T03:49:12;98815.13;;;-4.09;87.63
62025;BME280;47978;49.118;12.146;2022-12-18T03:53:18;98822.19;;;-3.85;86.01
62025;BME280;47978;49.118;12.146;2022-12-18T03:57:26;98841.81;;;-3.68;85.07
62025;BME280;47978;49.118;12.146;2022-12-18T04:01:30;98839.88;;;-3.97;86.76
62025;BME280;47978;49.118;12.146;2022-12-18T04:05:34;98836.31;;;-3.75;86.05
62025;BME280;47978;49.118;12.146;2022-12-18T04:09:36;98851.91;;;-3.62;85.34
62025;BME280;47978;49.118;12.146;2022-12-18T04:13:40;98862.41;;;-3.90;86.75
62025;BME280;47978;49.118;12.146;2022-12-18T04:17:46;98855.25;;;-3.98;86.91
62025;BME280;47978;49.118;12.146;2022-12-18T04:21:50;98854.72;;;-4.01;87.50
62025;BME280;47978;49.118;12.146;2022-12-18T04:25:51;98853.53;;;-3.99;87.17
62025;BME280;47978;49.118;12.146;2022-12-18T04:29:52;98861.63;;;-3.99;87.05
62025;BME280;47978;49.118;12.146;2022-12-18T04:33:54;98852.63;;;-3.68;86.06
62025;BME280;47978;49.118;12.146;2022-12-18T04:37:57;98851.38;;;-3.57;85.23
62025;BME280;47978;49.118;12.146;2022-12-18T04:41:58;98870.41;;;-3.51;84.94
62025;BME280;47978;49.118;12.146;2022-12-18T04:46:02;98869.59;;;-3.74;86.33
62025;BME280;47978;49.118;12.146;2022-12-18T04:50:04;98874.63;;;-3.71;86.13
62025;BME280;47978;49.118;12.146;2022-12-18T04:54:07;98887.47;;;-3.73;86.50
62025;BME280;47978;49.118;12.146;2022-12-18T04:58:09;98868.50;;;-3.88;87.38
62025;BME280;47978;49.118;12.146;2022-12-18T05:02:10;98871.91;;;-3.71;86.36
62025;BME280;47978;49.118;12.146;2022-12-18T05:06:12;98881.53;;;-3.69;85.50
62025;BME280;47978;49.118;12.146;2022-12-18T05:10:14;98878.06;;;-3.77;86.59
62025;BME280;47978;49.118;12.146;2022-12-18T05:14:16;98882.19;;;-3.67;86.32
62025;BME280;47978;49.118;12.146;2022-12-18T05:18:17;98880.69;;;-3.69;86.77
62025;BME280;47978;49.118;12.146;2022-12-18T05:22:19;98883.88;;;-3.66;86.06
62025;BME280;47978;49.118;12.146;2022-12-18T05:26:21;98889.75;;;-3.62;85.63
62025;BME280;47978;49.118;12.146;2022-12-18T05:30:23;98884.41;;;-3.70;85.89
62025;BME280;47978;49.118;12.146;2022-12-18T05:34:24;98892.41;;;-3.77;85.83
62025;BME280;47978;49.118;12.146;2022-12-18T05:38:26;98882.94;;;-3.73;85.48
62025;BME280;47978;49.118;12.146;2022-12-18T05:42:29;98878.94;;;-3.62;85.61
62025;BME280;47978;49.118;12.146;2022-12-18T05:46:31;98889.69;;;-3.77;86.01
62025;BME280;47978;49.118;12.146;2022-12-18T05:50:33;98908.25;;;-3.74;85.49
62025;BME280;47978;49.118;12.146;2022-12-18T05:54:35;98913.34;;;-3.79;84.88
62025;BME280;47978;49.118;12.146;2022-12-18T05:58:37;98916.72;;;-3.77;86.00
62025;BME280;47978;49.118;12.146;2022-12-18T06:02:39;98929.81;;;-3.89;86.29
62025;BME280;47978;49.118;12.146;2022-12-18T06:06:40;98930.31;;;-3.93;85.80
62025;BME280;47978;49.118;12.146;2022-12-18T06:10:42;98917.13;;;-3.88;86.21
62025;BME280;47978;49.118;12.146;2022-12-18T06:14:44;98913.84;;;-3.75;85.64
62025;BME280;47978;49.118;12.146;2022-12-18T06:18:46;98920.94;;;-3.74;85.13
62025;BME280;47978;49.118;12.146;2022-12-18T06:22:47;98914.84;;;-3.76;85.54
62025;BME280;47978;49.118;12.146;2022-12-18T06:26:49;98916.72;;;-3.77;85.66
62025;BME280;47978;49.118;12.146;2022-12-18T06:30:52;98928.06;;;-3.81;85.74
62025;BME280;47978;49.118;12.146;2022-12-18T06:34:53;98933.56;;;-3.98;86.47
62025;BME280;47978;49.118;12.146;2022-12-18T06:38:55;98936.25;;;-3.90;86.43
62025;BME280;47978;49.118;12.146;2022-12-18T06:42:57;98948.03;;;-3.91;86.18
62025;BME280;47978;49.118;12.146;2022-12-18T06:46:59;98942.13;;;-3.86;85.31
62025;BME280;47978;49.118;12.146;2022-12-18T06:51:01;98952.28;;;-3.96;85.50
62025;BME280;47978;49.118;12.146;2022-12-18T06:55:03;98948.84;;;-3.82;85.63
62025;BME280;47978;49.118;12.146;2022-12-18T06:59:04;98947.47;;;-3.78;85.36
62025;BME280;47978;49.118;12.146;2022-12-18T07:03:07;98944.94;;;-3.79;85.64
62025;BME280;47978;49.118;12.146;2022-12-18T07:07:08;98956.47;;;-3.86;85.46
62025;BME280;47978;49.118;12.146;2022-12-18T07:11:10;98964.25;;;-3.91;85.68
62025;BME280;47978;49.118;12.146;2022-12-18T07:15:11;98976.25;;;-3.93;85.77
62025;BME280;47978;49.118;12.146;2022-12-18T07:19:14;98986.56;;;-3.97;85.74
62025;BME280;47978;49.118;12.146;2022-12-18T07:23:15;98980.50;;;-3.99;85.89
62025;BME280;47978;49.118;12.146;2022-12-18T07:27:17;98971.88;;;-3.94;85.62
62025;BME280;47978;49.118;12.146;2022-12-18T07:31:19;98967.50;;;-3.95;85.18
62025;BME280;47978;49.118;12.146;2022-12-18T07:35:23;98959.22;;;-3.94;84.75
62025;BME280;47978;49.118;12.146;2022-12-18T07:39:25;98958.25;;;-4.01;84.96
62025;BME280;47978;49.118;12.146;2022-12-18T07:43:27;98956.22;;;-4.07;84.96
62025;BME280;47978;49.118;12.146;2022-12-18T07:47:28;98951.38;;;-4.12;85.37
62025;BME280;47978;49.118;12.146;2022-12-18T07:51:32;98949.38;;;-4.18;85.80
62025;BME280;47978;49.118;12.146;2022-12-18T07:55:33;98965.38;;;-4.16;85.73
62025;BME280;47978;49.118;12.146;2022-12-18T07:59:55;98980.59;;;-4.15;85.49
62025;BME280;47978;49.118;12.146;2022-12-18T08:03:56;98991.66;;;-4.02;85.17
62025;BME280;47978;49.118;12.146;2022-12-18T08:07:59;98997.31;;;-3.80;84.37
62025;BME280;47978;49.118;12.146;2022-12-18T08:12:00;98995.31;;;-3.87;84.73
62025;BME280;47978;49.118;12.146;2022-12-18T08:16:03;99001.59;;;-3.63;84.17
62025;BME280;47978;49.118;12.146;2022-12-18T08:20:05;98997.81;;;-3.54;83.12
62025;BME280;47978;49.118;12.146;2022-12-18T08:24:09;99008.03;;;-3.64;82.53
62025;BME280;47978;49.118;12.146;2022-12-18T08:28:11;99019.19;;;-3.67;83.27
62025;BME280;47978;49.118;12.146;2022-12-18T08:32:12;99012.19;;;-3.85;83.57
62025;BME280;47978;49.118;12.146;2022-12-18T08:36:13;99017.56;;;-3.85;83.61
62025;BME280;47978;49.118;12.146;2022-12-18T08:40:16;99016.72;;;-3.77;83.15
62025;BME280;47978;49.118;12.146;2022-12-18T08:44:18;99023.66;;;-3.82;83.05
62025;BME280;47978;49.118;12.146;2022-12-18T08:48:19;99031.03;;;-4.08;84.21
62025;BME280;47978;49.118;12.146;2022-12-18T08:52:22;99027.84;;;-4.11;84.71
62025;BME280;47978;49.118;12.146;2022-12-18T08:56:25;99024.25;;;-4.03;85.17
62025;BME280;47978;49.118;12.146;2022-12-18T09:00:26;99026.84;;;-3.79;84.17
62025;BME280;47978;49.118;12.146;2022-12-18T09:04:28;99025.50;;;-3.75;83.63
62025;BME280;47978;49.118;12.146;2022-12-18T09:08:29;99029.38;;;-3.77;83.95
62025;BME280;47978;49.118;12.146;2022-12-18T09:12:32;99024.06;;;-4.02;85.65
62025;BME280;47978;49.118;12.146;2022-12-18T09:16:33;99023.22;;;-3.94;85.13
62025;BME280;47978;49.118;12.146;2022-12-18T09:20:35;99031.56;;;-3.73;83.98
62025;BME280;47978;49.118;12.146;2022-12-18T09:24:36;99030.41;;;-3.78;84.30
62025;BME280;47978;49.118;12.146;2022-12-18T09:28:39;99026.09;;;-3.65;84.07
62025;BME280;47978;49.118;12.146;2022-12-18T09:32:41;99024.41;;;-3.66;83.45
62025;BME280;47978;49.118;12.146;2022-12-18T09:36:42;99020.97;;;-3.82;83.41
62025;BME280;47978;49.118;12.146;2022-12-18T09:40:44;99029.38;;;-4.17;85.00
62025;BME280;47978;49.118;12.146;2022-12-18T09:44:48;99023.59;;;-4.05;85.19
62025;BME280;47978;49.118;12.146;2022-12-18T09:48:51;99021.66;;;-3.89;84.06
62025;BME280;47978;49.118;12.146;2022-12-18T09:52:54;99012.50;;;-3.79;83.89
62025;BME280;47978;49.118;12.146;2022-12-18T09:56:57;98993.19;;;-3.68;84.12
62025;BME280;47978;49.118;12.146;2022-12-18T10:01:00;99002.44;;;-3.63;83.43
62025;BME280;47978;49.118;12.146;2022-12-18T10:05:03;98994.75;;;-3.51;83.01
62025;BME280;47978;49.118;12.146;2022-12-18T10:09:06;99007.13;;;-3.56;83.22
62025;BME280;47978;49.118;12.146;2022-12-18T10:13:15;99007.00;;;-3.63;82.13
62025;BME280;47978;49.118;12.146;2022-12-18T10:17:22;98997.22;;;-3.64;81.48
62025;BME280;47978;49.118;12.146;2022-12-18T10:21:30;98998.53;;;-3.91;82.52
62025;BME280;47978;49.118;12.146;2022-12-18T10:25:34;98991.56;;;-3.77;82.70
62025;BME280;47978;49.118;12.146;2022-12-18T10:29:40;98986.63;;;-3.74;82.64
62025;BME280;47978;49.118;12.146;2022-12-18T10:33:43;98985.50;;;-3.56;82.29
62025;BME280;47978;49.118;12.146;2022-12-18T10:37:58;98981.03;;;-3.41;82.19
62025;BME280;47978;49.118;12.146;2022-12-18T10:42:09;98976.09;;;-3.37;80.99
62025;BME280;47978;49.118;12.146;2022-12-18T10:46:14;98960.81;;;-3.30;80.61
62025;BME280;47978;49.118;12.146;2022-12-18T10:50:20;98942.47;;;-3.20;80.71
62025;BME280;47978;49.118;12.146;2022-12-18T10:54:32;98940.66;;;-3.05;79.50
62025;BME280;47978;49.118;12.146;2022-12-18T10:58:34;98949.81;;;-3.29;80.34
62025;BME280;47978;49.118;12.146;2022-12-18T11:02:37;98940.53;;;-3.49;80.98
62025;BME280;47978;49.118;12.146;2022-12-18T11:06:51;98947.84;;;-3.58;81.08
62025;BME280;47978;49.118;12.146;2022-12-18T11:10:53;98965.03;;;-3.51;80.64
62025;BME280;47978;49.118;12.146;2022-12-18T11:14:55;98983.72;;;-3.64;81.55
62025;BME280;47978;49.118;12.146;2022-12-18T11:19:06;98979.00;;;-4.01;82.48
62025;BME280;47978;49.118;12.146;2022-12-18T11:23:13;98991.63;;;-3.94;82.96
62025;BME280;47978;49.118;12.146;2022-12-18T11:27:15;98993.25;;;-3.85;82.47
62025;BME280;47978;49.118;12.146;2022-12-18T11:31:25;98987.47;;;-3.73;82.26
62025;BME280;47978;49.118;12.146;2022-12-18T11:35:32;98971.50;;;-3.60;81.97
62025;BME280;47978;49.118;12.146;2022-12-18T11:39:37;98962.25;;;-3.43;81.41
62025;BME280;47978;49.118;12.146;2022-12-18T11:43:40;98963.44;;;-3.22;80.86
62025;BME280;47978;49.118;12.146;2022-12-18T11:47:46;98964.53;;;-3.31;80.79
62025;BME280;47978;49.118;12.146;2022-12-18T11:51:51;98961.91;;;-3.40;80.85
62025;BME280;47978;49.118;12.146;2022-12-18T11:56:02;98963.88;;;-3.56;81.78
62025;BME280;47978;49.118;12.146;2022-12-18T12:00:10;98966.88;;;-3.51;81.86
62025;BME280;47978;49.118;12.146;2022-12-18T12:04:32;98973.59;;;-3.47;81.41
62025;BME280;47978;49.118;12.146;2022-12-18T12:08:43;98968.69;;;-3.44;81.74
62025;BME280;47978;49.118;12.146;2022-12-18T12:12:55;98963.50;;;-3.30;81.40
62025;BME280;47978;49.118;12.146;2022-12-18T12:17:03;98950.91;;;-3.15;80.90
62025;BME280;47978;49.118;12.146;2022-12-18T12:21:06;98938.69;;;-3.11;80.21
62025;BME280;47978;49.118;12.146;2022-12-18T12:25:13;98924.91;;;-3.01;79.83
62025;BME280;47978;49.118;12.146;2022-12-18T12:29:25;98912.56;;;-3.19;80.18
62025;BME280;47978;49.118;12.146;2022-12-18T12:33:33;98913.06;;;-3.00;80.56
62025;BME280;47978;49.118;12.146;2022-12-18T12:37:44;98912.16;;;-2.78;79.81
62025;BME280;47978;49.118;12.146;2022-12-18T12:41:49;98901.69;;;-2.66;79.29
62025;BME280;47978;49.118;12.146;2022-12-18T12:45:53;98917.47;;;-2.69;79.03
62025;BME280;47978;49.118;12.146;2022-12-18T12:49:55;98917.94;;;-2.51;78.32
62025;BME280;47978;49.118;12.146;2022-12-18T12:53:58;98906.06;;;-2.65;78.29
62025;BME280;47978;49.118;12.146;2022-12-18T12:58:04;98908.69;;;-2.57;77.57
62025;BME280;47978;49.118;12.146;2022-12-18T13:02:14;98910.19;;;-2.54;78.21
62025;BME280;47978;49.118;12.146;2022-12-18T13:06:18;98915.22;;;-2.81;78.50
62025;BME280;47978;49.118;12.146;2022-12-18T13:10:25;98914.84;;;-2.78;78.87
62025;BME280;47978;49.118;12.146;2022-12-18T13:14:28;98905.91;;;-2.78;79.14
62025;BME280;47978;49.118;12.146;2022-12-18T13:18:31;98910.09;;;-2.76;78.88
62025;BME280;47978;49.118;12.146;2022-12-18T13:22:34;98912.22;;;-2.71;78.70
62025;BME280;47978;49.118;12.146;2022-12-18T13:26:36;98911.47;;;-2.65;78.57
62025;BME280;47978;49.118;12.146;2022-12-18T13:30:41;98913.81;;;-2.77;79.33
62025;BME280;47978;49.118;12.146;2022-12-18T13:34:44;98921.94;;;-2.77;78.85
62025;BME280;47978;49.118;12.146;2022-12-18T13:38:46;98920.19;;;-2.69;78.78
62025;BME280;47978;49.118;12.146;2022-12-18T13:42:47;98915.59;;;-2.69;78.31
62025;BME280;47978;49.118;12.146;2022-12-18T13:46:50;98913.66;;;-2.75;78.78
62025;BME280;47978;49.118;12.146;2022-12-18T13:50:56;98907.72;;;-2.94;79.41
62025;BME280;47978;49.118;12.146;2022-12-18T13:54:58;98911.56;;;-2.88;79.18
62025;BME280;47978;49.118;12.146;2022-12-18T13:59:11;98912.97;;;-2.92;79.03
62025;BME280;47978;49.118;12.146;2022-12-18T14:03:17;98910.81;;;-2.82;78.51
62025;BME280;47978;49.118;12.146;2022-12-18T14:07:24;98903.06;;;-2.85;78.71
62025;BME280;47978;49.118;12.146;2022-12-18T14:11:31;98893.19;;;-2.78;78.30
62025;BME280;47978;49.118;12.146;2022-12-18T14:15:34;98903.72;;;-2.98;79.35
62025;BME280;47978;49.118;12.146;2022-12-18T14:19:37;98891.50;;;-2.94;79.13
62025;BME280;47978;49.118;12.146;2022-12-18T14:23:43;98887.97;;;-2.79;78.38
62025;BME280;47978;49.118;12.146;2022-12-18T14:27:46;98904.19;;;-2.94;78.49
62025;BME280;47978;49.118;12.146;2022-12-18T14:36:04;98911.09;;;-3.06;79.36
62025;BME280;47978;49.118;12.146;2022-12-18T14:40:12;98901.16;;;-3.29;79.86
62025;BME280;47978;49.118;12.146;2022-12-18T14:44:14;98902.22;;;-3.15;78.96
62025;BME280;47978;49.118;12.146;2022-12-18T14:48:16;98892.50;;;-3.24;79.04
62025;BME280;47978;49.118;12.146;2022-12-18T14:52:25;98886.44;;;-3.49;79.66
62025;BME280;47978;49.118;12.146;2022-12-18T14:56:30;98888.38;;;-3.58;80.02
62025;BME280;47978;49.118;12.146;2022-12-18T15:00:32;98887.59;;;-3.67;80.24
62025;BME280;47978;49.118;12.146;2022-12-18T15:04:34;98885.50;;;-3.79;80.34
62025;BME280;47978;49.118;12.146;2022-12-18T15:08:36;98898.03;;;-4.10;81.08
62025;BME280;47978;49.118;12.146;2022-12-18T15:12:40;98895.72;;;-3.90;80.44
62025;BME280;47978;49.118;12.146;2022-12-18T15:16:42;98906.78;;;-4.08;80.12
62025;BME280;47978;49.118;12.146;2022-12-18T15:20:47;98909.03;;;-4.19;81.14
62025;BME280;47978;49.118;12.146;2022-12-18T15:24:49;98913.84;;;-4.38;80.69
62025;BME280;47978;49.118;12.146;2022-12-18T15:28:54;98911.81;;;-4.36;81.00
62025;BME280;47978;49.118;12.146;2022-12-18T15:37:12;98913.34;;;-4.89;82.17
62025;BME280;47978;49.118;12.146;2022-12-18T15:41:13;98906.97;;;-5.04;82.23
62025;BME280;47978;49.118;12.146;2022-12-18T15:45:22;98903.28;;;-5.03;82.31
62025;BME280;47978;49.118;12.146;2022-12-18T15:49:24;98906.81;;;-5.11;82.32
62025;BME280;47978;49.118;12.146;2022-12-18T15:53:27;98909.19;;;-5.16;82.03
62025;BME280;47978;49.118;12.146;2022-12-18T15:57:30;98927.75;;;-5.29;82.20
62025;BME280;47978;49.118;12.146;2022-12-18T16:01:33;98924.53;;;-5.33;81.98
62025;BME280;47978;49.118;12.146;2022-12-18T16:05:41;98923.84;;;-5.18;81.00
62025;BME280;47978;49.118;12.146;2022-12-18T16:09:42;98923.38;;;-5.55;81.59
62025;BME280;47978;49.118;12.146;2022-12-18T16:13:43;98920.66;;;-5.63;81.96
62025;BME280;47978;49.118;12.146;2022-12-18T16:17:47;98920.97;;;-5.82;82.44
62025;BME280;47978;49.118;12.146;2022-12-18T16:21:49;98918.41;;;-5.92;82.46
62025;BME280;47978;49.118;12.146;2022-12-18T16:25:51;98917.94;;;-5.96;81.90
62025;BME280;47978;49.118;12.146;2022-12-18T16:29:52;98917.13;;;-5.96;82.22
62025;BME280;47978;49.118;12.146;2022-12-18T16:38:11;98904.78;;;-6.15;82.52
62025;BME280;47978;49.118;12.146;2022-12-18T16:42:14;98901.91;;;-6.22;82.43
62025;BME280;47978;49.118;12.146;2022-12-18T16:46:15;98901.72;;;-6.37;82.83
62025;BME280;47978;49.118;12.146;2022-12-18T16:50:17;98910.75;;;-6.46;83.26
62025;BME280;47978;49.118;12.146;2022-12-18T16:54:20;98908.38;;;-6.49;82.42
62025;BME280;47978;49.118;12.146;2022-12-18T16:58:21;98901.16;;;-6.48;82.07
62025;BME280;47978;49.118;12.146;2022-12-18T17:02:24;98895.31;;;-6.36;81.36
62025;BME280;47978;49.118;12.146;2022-12-18T17:06:28;98897.78;;;-6.50;81.40
62025;BME280;47978;49.118;12.146;2022-12-18T17:10:31;98896.31;;;-6.79;82.63
62025;BME280;47978;49.118;12.146;2022-12-18T17:14:32;98902.38;;;-6.77;82.36
62025;BME280;47978;49.118;12.146;2022-12-18T17:18:33;98896.78;;;-6.84;81.83
62025;BME280;47978;49.118;12.146;2022-12-18T17:22:35;98898.81;;;-6.86;81.70
62025;BME280;47978;49.118;12.146;2022-12-18T17:26:38;98893.97;;;-6.82;81.47
62025;BME280;47978;49.118;12.146;2022-12-18T17:30:39;98904.50;;;-6.89;81.00
62025;BME280;47978;49.118;12.146;2022-12-18T17:34:41;98896.19;;;-7.04;81.53
62025;BME280;47978;49.118;12.146;2022-12-18T17:38:42;98892.47;;;-7.11;81.78
62025;BME280;47978;49.118;12.146;2022-12-18T17:42:45;98889.53;;;-7.26;82.05
62025;BME280;47978;49.118;12.146;2022-12-18T17:46:46;98882.31;;;-7.43;82.23
62025;BME280;47978;49.118;12.146;2022-12-18T17:50:48;98882.69;;;-7.38;81.72
62025;BME280;47978;49.118;12.146;2022-12-18T17:54:49;98893.31;;;-7.36;82.20
62025;BME280;47978;49.118;12.146;2022-12-18T17:58:52;98880.19;;;-7.39;81.51
62025;BME280;47978;49.118;12.146;2022-12-18T18:02:53;98875.53;;;-7.55;82.21
62025;BME280;47978;49.118;12.146;2022-12-18T18:06:55;98888.25;;;-7.57;82.10
62025;BME280;47978;49.118;12.146;2022-12-18T18:10:57;98882.53;;;-7.62;81.73
62025;BME280;47978;49.118;12.146;2022-12-18T18:15:00;98879.16;;;-7.64;81.58
62025;BME280;47978;49.118;12.146;2022-12-18T18:19:02;98885.78;;;-7.77;81.90
62025;BME280;47978;49.118;12.146;2022-12-18T18:23:04;98884.00;;;-7.68;81.18
62025;BME280;47978;49.118;12.146;2022-12-18T18:27:05;98891.44;;;-7.80;81.76
62025;BME280;47978;49.118;12.146;2022-12-18T18:31:09;98885.47;;;-7.92;81.56
62025;BME280;47978;49.118;12.146;2022-12-18T18:35:11;98886.47;;;-7.93;81.43
62025;BME280;47978;49.118;12.146;2022-12-18T18:39:32;98879.56;;;-7.95;81.45
62025;BME280;47978;49.118;12.146;2022-12-18T18:43:33;98877.97;;;-8.06;81.93
62025;BME280;47978;49.118;12.146;2022-12-18T18:47:36;98880.97;;;-7.91;81.33
62025;BME280;47978;49.118;12.146;2022-12-18T18:51:37;98874.13;;;-8.03;81.79
62025;BME280;47978;49.118;12.146;2022-12-18T18:55:39;98882.78;;;-8.09;81.73
62025;BME280;47978;49.118;12.146;2022-12-18T18:59:40;98886.09;;;-7.98;81.25
62025;BME280;47978;49.118;12.146;2022-12-18T19:03:44;98882.97;;;-7.93;82.03
62025;BME280;47978;49.118;12.146;2022-12-18T19:07:45;98877.81;;;-8.04;82.70
62025;BME280;47978;49.118;12.146;2022-12-18T19:11:47;98874.38;;;-7.97;83.40
62025;BME280;47978;49.118;12.146;2022-12-18T19:15:48;98870.66;;;-7.78;83.15
62025;BME280;47978;49.118;12.146;2022-12-18T19:19:51;98867.78;;;-7.58;82.82
62025;BME280;47978;49.118;12.146;2022-12-18T19:23:52;98862.38;;;-7.40;83.23
62025;BME280;47978;49.118;12.146;2022-12-18T19:27:54;98868.69;;;-7.24;83.99
62025;BME280;47978;49.118;12.146;2022-12-18T19:31:55;98862.16;;;-7.21;84.22
62025;BME280;47978;49.118;12.146;2022-12-18T19:35:58;98855.50;;;-7.09;84.32
62025;BME280;47978;49.118;12.146;2022-12-18T19:40:00;98856.81;;;-6.79;83.90
62025;BME280;47978;49.118;12.146;2022-12-18T19:44:07;98850.59;;;-6.79;83.60
62025;BME280;47978;49.118;12.146;2022-12-18T19:48:09;98854.16;;;-6.70;83.42
62025;BME280;47978;49.118;12.146;2022-12-18T19:52:11;98861.31;;;-6.87;83.90
62025;BME280;47978;49.118;12.146;2022-12-18T19:56:14;98863.88;;;-6.86;83.55
62025;BME280;47978;49.118;12.146;2022-12-18T20:00:16;98865.75;;;-6.70;82.99
62025;BME280;47978;49.118;12.146;2022-12-18T20:04:19;98867.16;;;-6.58;81.30
62025;BME280;47978;49.118;12.146;2022-12-18T20:08:22;98867.03;;;-6.90;81.88
62025;BME280;47978;49.118;12.146;2022-12-18T20:12:23;98853.72;;;-7.00;82.86
62025;BME280;47978;49.118;12.146;2022-12-18T20:16:25;98857.69;;;-6.70;82.17
62025;BME280;47978;49.118;12.146;2022-12-18T20:20:27;98855.69;;;-6.68;82.06
62025;BME280;47978;49.118;12.146;2022-12-18T20:24:29;98856.38;;;-6.66;82.54
62025;BME280;47978;49.118;12.146;2022-12-18T20:28:31;98859.94;;;-6.57;82.71
62025;BME280;47978;49.118;12.146;2022-12-18T20:32:32;98860.78;;;-6.57;83.24
62025;BME280;47978;49.118;12.146;2022-12-18T20:36:37;98857.47;;;-6.42;82.91
62025;BME280;47978;49.118;12.146;2022-12-18T20:40:42;98860.00;;;-6.32;82.50
62025;BME280;47978;49.118;12.146;2022-12-18T20:44:44;98860.84;;;-6.24;82.82
62025;BME280;47978;49.118;12.146;2022-12-18T20:48:45;98852.59;;;-6.39;83.61
62025;BME280;47978;49.118;12.146;2022-12-18T20:52:46;98855.13;;;-6.37;84.21
62025;BME280;47978;49.118;12.146;2022-12-18T20:56:49;98845.25;;;-6.20;83.53
62025;BME280;47978;49.118;12.146;2022-12-18T21:01:00;98839.34;;;-6.16;83.19
62025;BME280;47978;49.118;12.146;2022-12-18T21:05:02;98843.06;;;-6.00;83.72
62025;BME280;47978;49.118;12.146;2022-12-18T21:09:03;98840.53;;;-6.02;83.78
62025;BME280;47978;49.118;12.146;2022-12-18T21:13:06;98843.41;;;-6.12;84.25
62025;BME280;47978;49.118;12.146;2022-12-18T21:17:11;98845.09;;;-5.94;84.49
62025;BME280;47978;49.118;12.146;2022-12-18T21:21:13;98845.56;;;-5.91;84.50
62025;BME280;47978;49.118;12.146;2022-12-18T21:25:14;98850.44;;;-5.78;84.58